createdAt,value
2018-06-05T00:00:11.902Z,1007.17
2018-06-05T00:01:11.905Z,1007.18
2018-06-05T00:02:11.906Z,1007.16
2018-06-05T00:03:11.904Z,1007.17
2018-06-05T00:04:11.907Z,1007.16
2018-06-05T00:05:11.907Z,1007.16
2018-06-05T00:06:11.907Z,1007.17
2018-06-05T00:07:11.908Z,1007.17
2018-06-05T00:08:11.913Z,1007.18
2018-06-05T00:09:11.911Z,1007.16
2018-06-05T00:10:11.910Z,1007.18
2018-06-05T00:11:11.915Z,1007.17
2018-06-05T00:12:11.913Z,1007.18
2018-06-05T00:13:11.913Z,1007.16
2018-06-05T00:14:11.917Z,1007.18
2018-06-05T00:15:11.916Z,1007.16
2018-06-05T00:16:11.913Z,1007.19
2018-06-05T00:17:11.920Z,1007.20
2018-06-05T00:18:11.921Z,1007.21
2018-06-05T00:19:11.919Z,1007.20
2018-06-05T00:20:11.926Z,1007.21
2018-06-05T00:21:11.919Z,1007.20
2018-06-05T00:22:11.922Z,1007.18
2018-06-05T00:23:11.922Z,1007.21
2018-06-05T00:24:11.923Z,1007.19
2018-06-05T00:25:11.924Z,1007.24
2018-06-05T00:26:11.934Z,1007.22
2018-06-05T00:27:11.929Z,1007.21
2018-06-05T00:28:11.925Z,1007.24
2018-06-05T00:29:11.930Z,1007.26
2018-06-05T00:30:11.928Z,1007.25
2018-06-05T00:31:11.928Z,1007.23
2018-06-05T00:32:11.930Z,1007.22
2018-06-05T00:33:11.931Z,1007.20
2018-06-05T00:34:11.932Z,1007.16
2018-06-05T00:35:11.932Z,1007.15
2018-06-05T00:36:11.932Z,1007.17
2018-06-05T00:37:11.933Z,1007.18
2018-06-05T00:38:11.936Z,1007.18
2018-06-05T00:39:11.937Z,1007.21
2018-06-05T00:40:11.934Z,1007.19
2018-06-05T00:41:11.947Z,1007.20
2018-06-05T00:42:11.939Z,1007.21
2018-06-05T00:43:11.939Z,1007.21
2018-06-05T00:44:11.940Z,1007.19
2018-06-05T00:45:11.940Z,1007.18
2018-06-05T00:46:11.944Z,1007.18
2018-06-05T00:47:11.943Z,1007.24
2018-06-05T00:48:11.943Z,1007.23
2018-06-05T00:49:11.945Z,1007.24
2018-06-05T00:50:11.945Z,1007.29
2018-06-05T00:51:11.945Z,1007.28
2018-06-05T00:52:11.947Z,1007.29
2018-06-05T00:53:11.947Z,1007.30
2018-06-05T00:54:11.948Z,1007.30
2018-06-05T00:55:11.950Z,1007.30
2018-06-05T00:56:11.954Z,1007.29
2018-06-05T00:57:11.950Z,1007.29
2018-06-05T00:58:11.949Z,1007.30
2018-06-05T00:59:11.950Z,1007.28
2018-06-05T01:00:11.952Z,1007.29
2018-06-05T01:01:11.954Z,1007.29
2018-06-05T01:02:11.954Z,1007.32
2018-06-05T01:03:11.954Z,1007.31
2018-06-05T01:04:11.954Z,1007.33
2018-06-05T01:05:11.958Z,1007.33
2018-06-05T01:06:11.956Z,1007.34
2018-06-05T01:07:11.956Z,1007.35
2018-06-05T01:08:11.959Z,1007.35
2018-06-05T01:09:11.959Z,1007.38
2018-06-05T01:10:11.959Z,1007.34
2018-06-05T01:11:11.959Z,1007.35
2018-06-05T01:12:11.956Z,1007.38
2018-06-05T01:13:11.962Z,1007.33
2018-06-05T01:14:11.964Z,1007.32
2018-06-05T01:15:11.961Z,1007.35
2018-06-05T01:16:11.963Z,1007.35
2018-06-05T01:17:11.960Z,1007.34
2018-06-05T01:18:11.964Z,1007.33
2018-06-05T01:19:11.962Z,1007.33
2018-06-05T01:20:11.964Z,1007.31
2018-06-05T01:21:11.968Z,1007.28
2018-06-05T01:22:11.963Z,1007.29
2018-06-05T01:23:11.971Z,1007.29
2018-06-05T01:24:11.967Z,1007.29
2018-06-05T01:25:11.972Z,1007.28
2018-06-05T01:26:11.969Z,1007.25
2018-06-05T01:27:11.967Z,1007.24
2018-06-05T01:28:11.970Z,1007.26
2018-06-05T01:29:11.970Z,1007.20
2018-06-05T01:30:11.969Z,1007.19
2018-06-05T01:31:11.968Z,1007.21
2018-06-05T01:32:11.973Z,1007.21
2018-06-05T01:33:11.971Z,1007.20
2018-06-05T01:34:11.972Z,1007.16
2018-06-05T01:35:11.970Z,1007.17
2018-06-05T01:36:11.973Z,1007.17
2018-06-05T01:37:11.973Z,1007.15
2018-06-05T01:38:11.974Z,1007.11
2018-06-05T01:39:11.973Z,1007.15
2018-06-05T01:40:11.973Z,1007.15
2018-06-05T01:41:11.977Z,1007.07
2018-06-05T01:42:11.976Z,1007.09
2018-06-05T01:43:11.975Z,1007.09
2018-06-05T01:44:11.975Z,1007.05
2018-06-05T01:45:11.979Z,1007.09
2018-06-05T01:46:11.977Z,1007.05
2018-06-05T01:47:11.977Z,1007.07
2018-06-05T01:48:11.977Z,1007.08
2018-06-05T01:49:11.978Z,1007.08
2018-06-05T01:50:11.985Z,1007.11
2018-06-05T01:51:11.979Z,1007.09
2018-06-05T01:52:11.978Z,1007.13
2018-06-05T01:53:11.979Z,1007.14
2018-06-05T01:54:11.981Z,1007.09
2018-06-05T01:55:11.982Z,1007.09
2018-06-05T01:56:11.982Z,1007.11
2018-06-05T01:57:11.982Z,1007.08
2018-06-05T01:58:11.982Z,1007.08
2018-06-05T01:59:11.984Z,1007.09
2018-06-05T02:00:11.983Z,1007.06
2018-06-05T02:01:11.985Z,1007.08
2018-06-05T02:02:11.985Z,1007.08
2018-06-05T02:03:11.987Z,1007.05
2018-06-05T02:04:11.983Z,1007.02
2018-06-05T02:05:11.987Z,1007.02
2018-06-05T02:06:11.987Z,1007.01
2018-06-05T02:07:11.986Z,1007.03
2018-06-05T02:08:11.987Z,1007.03
2018-06-05T02:09:11.990Z,1007.00
2018-06-05T02:10:11.989Z,1006.99
2018-06-05T02:11:11.990Z,1006.99
2018-06-05T02:12:11.991Z,1006.95
2018-06-05T02:13:11.991Z,1006.96
2018-06-05T02:14:11.991Z,1007.00
2018-06-05T02:15:11.990Z,1007.00
2018-06-05T02:16:11.993Z,1006.95
2018-06-05T02:17:11.992Z,1006.96
2018-06-05T02:18:11.993Z,1006.98
2018-06-05T02:19:11.988Z,1007.02
2018-06-05T02:20:11.992Z,1007.02
2018-06-05T02:21:11.994Z,1007.00
2018-06-05T02:22:11.994Z,1007.02
2018-06-05T02:23:11.992Z,1007.03
2018-06-05T02:24:11.991Z,1007.04
2018-06-05T02:25:11.998Z,1006.99
2018-06-05T02:26:11.994Z,1007.01
2018-06-05T02:27:11.995Z,1007.02
2018-06-05T02:28:11.996Z,1007.01
2018-06-05T02:29:11.994Z,1007.00
2018-06-05T02:30:11.997Z,1006.93
2018-06-05T02:31:11.996Z,1006.96
2018-06-05T02:32:11.997Z,1006.94
2018-06-05T02:33:12.000Z,1006.99
2018-06-05T02:34:12.043Z,1006.96
2018-06-05T02:35:11.997Z,1006.93
2018-06-05T02:36:11.995Z,1007.00
2018-06-05T02:37:12.002Z,1006.99
2018-06-05T02:38:12.004Z,1007.03
2018-06-05T02:39:11.999Z,1007.02
2018-06-05T02:40:11.999Z,1007.03
2018-06-05T02:41:12.001Z,1007.02
2018-06-05T02:42:11.998Z,1007.04
2018-06-05T02:43:11.999Z,1007.02
2018-06-05T02:44:12.000Z,1007.04
2018-06-05T02:45:12.000Z,1007.05
2018-06-05T02:46:11.999Z,1007.05
2018-06-05T02:47:12.000Z,1007.03
2018-06-05T02:48:12.003Z,1007.07
2018-06-05T02:49:12.000Z,1007.02
2018-06-05T02:50:12.001Z,1007.07
2018-06-05T02:51:12.004Z,1007.05
2018-06-05T02:52:12.002Z,1007.08
2018-06-05T02:53:12.002Z,1007.09
2018-06-05T02:54:12.003Z,1007.11
2018-06-05T02:55:12.002Z,1007.09
2018-06-05T02:56:12.002Z,1007.14
2018-06-05T02:57:12.006Z,1007.10
2018-06-05T02:58:12.003Z,1007.14
2018-06-05T02:59:12.002Z,1007.17
2018-06-05T03:00:12.009Z,1007.13
2018-06-05T03:01:12.006Z,1007.15
2018-06-05T03:02:12.004Z,1007.19
2018-06-05T03:03:12.004Z,1007.19
2018-06-05T03:04:12.005Z,1007.21
2018-06-05T03:05:12.006Z,1007.21
2018-06-05T03:06:12.006Z,1007.22
2018-06-05T03:07:12.008Z,1007.22
2018-06-05T03:08:12.006Z,1007.21
2018-06-05T03:09:12.005Z,1007.19
2018-06-05T03:10:12.007Z,1007.18
2018-06-05T03:11:12.006Z,1007.14
2018-06-05T03:12:12.005Z,1007.18
2018-06-05T03:13:12.006Z,1007.20
2018-06-05T03:14:12.007Z,1007.19
2018-06-05T03:15:12.006Z,1007.15
2018-06-05T03:16:12.007Z,1007.19
2018-06-05T03:17:12.014Z,1007.19
2018-06-05T03:18:12.008Z,1007.18
2018-06-05T03:19:12.007Z,1007.20
2018-06-05T03:20:12.010Z,1007.22
2018-06-05T03:21:12.011Z,1007.20
2018-06-05T03:22:12.009Z,1007.18
2018-06-05T03:23:12.007Z,1007.22
2018-06-05T03:24:12.008Z,1007.19
2018-06-05T03:25:12.009Z,1007.22
2018-06-05T03:26:12.009Z,1007.19
2018-06-05T03:27:12.009Z,1007.24
2018-06-05T03:28:12.008Z,1007.23
2018-06-05T03:29:12.009Z,1007.24
2018-06-05T03:30:12.012Z,1007.20
2018-06-05T03:31:12.012Z,1007.23
2018-06-05T03:32:12.013Z,1007.26
2018-06-05T03:33:12.011Z,1007.24
2018-06-05T03:34:12.013Z,1007.23
2018-06-05T03:35:12.013Z,1007.27
2018-06-05T03:36:12.013Z,1007.26
2018-06-05T03:37:12.012Z,1007.27
2018-06-05T03:38:12.014Z,1007.30
2018-06-05T03:39:12.012Z,1007.30
2018-06-05T03:40:12.018Z,1007.23
2018-06-05T03:41:12.014Z,1007.23
2018-06-05T03:42:12.015Z,1007.26
2018-06-05T03:43:12.024Z,1007.23
2018-06-05T03:44:12.016Z,1007.25
2018-06-05T03:45:12.014Z,1007.18
2018-06-05T03:46:12.017Z,1007.23
2018-06-05T03:47:12.018Z,1007.19
2018-06-05T03:48:12.017Z,1007.21
2018-06-05T03:49:12.019Z,1007.20
2018-06-05T03:50:12.018Z,1007.21
2018-06-05T03:51:12.020Z,1007.25
2018-06-05T03:52:12.024Z,1007.23
2018-06-05T03:53:12.020Z,1007.26
2018-06-05T03:54:12.021Z,1007.23
2018-06-05T03:55:12.019Z,1007.25
2018-06-05T03:56:12.027Z,1007.28
2018-06-05T03:57:12.028Z,1007.26
2018-06-05T03:58:12.022Z,1007.25
2018-06-05T03:59:12.022Z,1007.26
2018-06-05T04:00:12.023Z,1007.20
2018-06-05T04:01:12.020Z,1007.24
2018-06-05T04:02:12.024Z,1007.20
2018-06-05T04:03:12.023Z,1007.17
2018-06-05T04:04:12.023Z,1007.17
2018-06-05T04:05:12.029Z,1007.22
2018-06-05T04:06:12.025Z,1007.21
2018-06-05T04:07:12.025Z,1007.21
2018-06-05T04:08:12.026Z,1007.18
2018-06-05T04:09:12.027Z,1007.20
2018-06-05T04:10:12.032Z,1007.24
2018-06-05T04:11:12.027Z,1007.19
2018-06-05T04:12:12.025Z,1007.22
2018-06-05T04:13:12.028Z,1007.26
2018-06-05T04:14:12.030Z,1007.25
2018-06-05T04:15:12.027Z,1007.27
2018-06-05T04:16:12.033Z,1007.26
2018-06-05T04:17:12.031Z,1007.29
2018-06-05T04:18:12.031Z,1007.31
2018-06-05T04:19:12.032Z,1007.30
2018-06-05T04:20:12.033Z,1007.33
2018-06-05T04:21:12.033Z,1007.37
2018-06-05T04:22:12.033Z,1007.35
2018-06-05T04:23:12.034Z,1007.37
2018-06-05T04:24:12.035Z,1007.35
2018-06-05T04:25:12.035Z,1007.35
2018-06-05T04:26:12.036Z,1007.35
2018-06-05T04:27:12.080Z,1007.37
2018-06-05T04:28:12.033Z,1007.37
2018-06-05T04:29:12.039Z,1007.39
2018-06-05T04:30:12.043Z,1007.38
2018-06-05T04:31:12.038Z,1007.45
2018-06-05T04:32:12.042Z,1007.46
2018-06-05T04:33:12.044Z,1007.49
2018-06-05T04:34:12.042Z,1007.53
2018-06-05T04:35:12.043Z,1007.53
2018-06-05T04:36:12.099Z,1007.52
2018-06-05T04:37:12.044Z,1007.50
2018-06-05T04:38:12.045Z,1007.58
2018-06-05T04:39:12.044Z,1007.58
2018-06-05T04:40:12.046Z,1007.53
2018-06-05T04:41:12.047Z,1007.55
2018-06-05T04:42:12.047Z,1007.55
2018-06-05T04:43:12.048Z,1007.54
2018-06-05T04:44:12.049Z,1007.55
2018-06-05T04:45:12.050Z,1007.54
2018-06-05T04:46:12.052Z,1007.54
2018-06-05T04:47:12.051Z,1007.56
2018-06-05T04:48:12.051Z,1007.56
2018-06-05T04:49:12.053Z,1007.57
2018-06-05T04:50:12.049Z,1007.55
2018-06-05T04:51:12.055Z,1007.61
2018-06-05T04:52:12.054Z,1007.59
2018-06-05T04:53:12.069Z,1007.61
2018-06-05T04:54:12.057Z,1007.62
2018-06-05T04:55:12.057Z,1007.63
2018-06-05T04:56:12.058Z,1007.62
2018-06-05T04:57:12.058Z,1007.62
2018-06-05T04:58:12.060Z,1007.64
2018-06-05T04:59:12.059Z,1007.65
2018-06-05T05:00:12.062Z,1007.68
2018-06-05T05:01:12.061Z,1007.66
2018-06-05T05:02:12.062Z,1007.69
2018-06-05T05:03:12.060Z,1007.72
2018-06-05T05:04:12.062Z,1007.72
2018-06-05T05:05:12.067Z,1007.72
2018-06-05T05:06:12.064Z,1007.70
2018-06-05T05:07:12.065Z,1007.73
2018-06-05T05:08:12.066Z,1007.75
2018-06-05T05:09:12.065Z,1007.75
2018-06-05T05:10:12.068Z,1007.72
2018-06-05T05:11:12.068Z,1007.74
2018-06-05T05:12:12.069Z,1007.70
2018-06-05T05:13:12.068Z,1007.71
2018-06-05T05:14:12.071Z,1007.73
2018-06-05T05:15:12.070Z,1007.75
2018-06-05T05:16:12.071Z,1007.73
2018-06-05T05:17:12.072Z,1007.76
2018-06-05T05:18:12.073Z,1007.76
2018-06-05T05:19:12.073Z,1007.75
2018-06-05T05:20:12.071Z,1007.77
2018-06-05T05:21:12.074Z,1007.76
2018-06-05T05:22:12.075Z,1007.79
2018-06-05T05:23:12.080Z,1007.81
2018-06-05T05:24:12.077Z,1007.80
2018-06-05T05:25:12.077Z,1007.80
2018-06-05T05:26:12.075Z,1007.86
2018-06-05T05:27:12.093Z,1007.85
2018-06-05T05:28:12.078Z,1007.82
2018-06-05T05:29:12.080Z,1007.88
2018-06-05T05:30:12.079Z,1007.86
2018-06-05T05:31:12.080Z,1007.90
2018-06-05T05:32:12.080Z,1007.92
2018-06-05T05:33:12.079Z,1007.92
2018-06-05T05:34:12.082Z,1007.97
2018-06-05T05:35:12.084Z,1007.97
2018-06-05T05:36:12.083Z,1007.97
2018-06-05T05:37:12.087Z,1007.97
2018-06-05T05:38:12.086Z,1007.99
2018-06-05T05:39:12.110Z,1008.01
2018-06-05T05:40:12.087Z,1007.94
2018-06-05T05:41:12.090Z,1007.96
2018-06-05T05:42:12.090Z,1008.03
2018-06-05T05:43:12.089Z,1007.97
2018-06-05T05:44:12.087Z,1007.99
2018-06-05T05:45:12.090Z,1008.04
2018-06-05T05:46:12.093Z,1008.03
2018-06-05T05:47:12.098Z,1008.07
2018-06-05T05:48:12.091Z,1008.10
2018-06-05T05:49:12.098Z,1008.07
2018-06-05T05:50:12.094Z,1008.10
2018-06-05T05:51:12.098Z,1008.13
2018-06-05T05:52:12.095Z,1008.12
2018-06-05T05:53:12.096Z,1008.18
2018-06-05T05:54:12.096Z,1008.15
2018-06-05T05:55:12.099Z,1008.15
2018-06-05T05:56:12.097Z,1008.17
2018-06-05T05:57:12.098Z,1008.15
2018-06-05T05:58:12.099Z,1008.17
2018-06-05T05:59:12.099Z,1008.13
2018-06-05T06:00:12.100Z,1008.20
2018-06-05T06:01:12.101Z,1008.18
2018-06-05T06:02:12.102Z,1008.18
2018-06-05T06:03:12.103Z,1008.19
2018-06-05T06:04:12.104Z,1008.20
2018-06-05T06:05:12.107Z,1008.21
2018-06-05T06:06:12.106Z,1008.20
2018-06-05T06:07:12.106Z,1008.23
2018-06-05T06:08:12.107Z,1008.22
2018-06-05T06:09:12.107Z,1008.27
2018-06-05T06:10:12.113Z,1008.27
2018-06-05T06:11:12.110Z,1008.26
2018-06-05T06:12:12.110Z,1008.27
2018-06-05T06:13:12.112Z,1008.26
2018-06-05T06:14:12.112Z,1008.25
2018-06-05T06:15:12.114Z,1008.27
2018-06-05T06:16:12.113Z,1008.25
2018-06-05T06:17:12.113Z,1008.29
2018-06-05T06:18:12.116Z,1008.31
2018-06-05T06:19:12.117Z,1008.32
2018-06-05T06:20:12.117Z,1008.32
2018-06-05T06:21:12.120Z,1008.34
2018-06-05T06:22:12.119Z,1008.34
2018-06-05T06:23:12.119Z,1008.34
2018-06-05T06:24:12.118Z,1008.33
2018-06-05T06:25:12.121Z,1008.35
2018-06-05T06:26:12.125Z,1008.40
2018-06-05T06:27:12.123Z,1008.41
2018-06-05T06:28:12.122Z,1008.39
2018-06-05T06:29:12.125Z,1008.41
2018-06-05T06:30:12.126Z,1008.42
2018-06-05T06:31:12.125Z,1008.40
2018-06-05T06:32:12.126Z,1008.40
2018-06-05T06:33:12.124Z,1008.40
2018-06-05T06:34:12.128Z,1008.40
2018-06-05T06:35:12.129Z,1008.38
2018-06-05T06:36:12.130Z,1008.34
2018-06-05T06:37:12.131Z,1008.37
2018-06-05T06:38:12.133Z,1008.36
2018-06-05T06:39:12.134Z,1008.41
2018-06-05T06:40:12.136Z,1008.36
2018-06-05T06:41:12.139Z,1008.36
2018-06-05T06:42:12.135Z,1008.34
2018-06-05T06:43:12.137Z,1008.36
2018-06-05T06:44:12.141Z,1008.38
2018-06-05T06:45:12.140Z,1008.40
2018-06-05T06:46:12.138Z,1008.46
2018-06-05T06:47:12.139Z,1008.38
2018-06-05T06:48:12.145Z,1008.41
2018-06-05T06:49:12.143Z,1008.40
2018-06-05T06:50:12.145Z,1008.38
2018-06-05T06:51:12.141Z,1008.41
2018-06-05T06:52:12.145Z,1008.39
2018-06-05T06:53:12.147Z,1008.36
2018-06-05T06:54:12.152Z,1008.38
2018-06-05T06:55:12.148Z,1008.37
2018-06-05T06:56:12.149Z,1008.37
2018-06-05T06:57:12.149Z,1008.39
2018-06-05T06:58:12.155Z,1008.39
2018-06-05T06:59:12.151Z,1008.41
2018-06-05T07:00:12.153Z,1008.41
2018-06-05T07:01:12.156Z,1008.41
2018-06-05T07:02:12.156Z,1008.48
2018-06-05T07:03:12.157Z,1008.51
2018-06-05T07:04:12.158Z,1008.47
2018-06-05T07:05:12.158Z,1008.52
2018-06-05T07:06:12.162Z,1008.52
2018-06-05T07:07:12.160Z,1008.49
2018-06-05T07:08:12.166Z,1008.53
2018-06-05T07:09:12.161Z,1008.52
2018-06-05T07:10:12.167Z,1008.56
2018-06-05T07:11:12.166Z,1008.50
2018-06-05T07:12:12.201Z,1008.55
2018-06-05T07:13:12.169Z,1008.54
2018-06-05T07:14:12.173Z,1008.57
2018-06-05T07:15:12.169Z,1008.59
2018-06-05T07:16:12.171Z,1008.55
2018-06-05T07:17:12.173Z,1008.60
2018-06-05T07:18:12.183Z,1008.60
2018-06-05T07:19:12.174Z,1008.64
2018-06-05T07:20:12.174Z,1008.59
2018-06-05T07:21:12.177Z,1008.57
2018-06-05T07:22:12.174Z,1008.63
2018-06-05T07:23:12.178Z,1008.61
2018-06-05T07:24:12.181Z,1008.66
2018-06-05T07:25:12.182Z,1008.66
2018-06-05T07:26:12.182Z,1008.60
2018-06-05T07:27:12.182Z,1008.61
2018-06-05T07:28:12.189Z,1008.58
2018-06-05T07:29:12.185Z,1008.62
2018-06-05T07:30:12.198Z,1008.60
2018-06-05T07:31:12.188Z,1008.63
2018-06-05T07:32:12.193Z,1008.65
2018-06-05T07:33:12.188Z,1008.65
2018-06-05T07:34:12.189Z,1008.68
2018-06-05T07:35:12.193Z,1008.67
2018-06-05T07:36:12.194Z,1008.71
2018-06-05T07:37:12.193Z,1008.70
2018-06-05T07:38:12.199Z,1008.75
2018-06-05T07:39:12.198Z,1008.73
2018-06-05T07:40:12.193Z,1008.73
2018-06-05T07:41:12.200Z,1008.74
2018-06-05T07:42:12.200Z,1008.75
2018-06-05T07:43:12.204Z,1008.78
2018-06-05T07:44:12.203Z,1008.77
2018-06-05T07:45:12.201Z,1008.78
2018-06-05T07:46:12.206Z,1008.80
2018-06-05T07:47:12.206Z,1008.76
2018-06-05T07:48:12.210Z,1008.81
2018-06-05T07:49:12.210Z,1008.83
2018-06-05T07:50:12.211Z,1008.81
2018-06-05T07:51:12.212Z,1008.79
2018-06-05T07:52:12.211Z,1008.85
2018-06-05T07:53:12.214Z,1008.83
2018-06-05T07:54:12.215Z,1008.85
2018-06-05T07:55:12.270Z,1008.88
2018-06-05T07:56:12.217Z,1008.88
2018-06-05T07:57:12.223Z,1008.90
2018-06-05T07:58:12.220Z,1008.95
2018-06-05T07:59:12.227Z,1008.91
2018-06-05T08:00:12.222Z,1008.85
2018-06-05T08:01:12.226Z,1008.88
2018-06-05T08:02:12.225Z,1008.90
2018-06-05T08:03:12.229Z,1008.88
2018-06-05T08:04:12.228Z,1008.93
2018-06-05T08:05:12.239Z,1008.95
2018-06-05T08:06:12.231Z,1008.95
2018-06-05T08:07:12.232Z,1008.92
2018-06-05T08:08:12.233Z,1008.97
2018-06-05T08:09:12.240Z,1008.99
2018-06-05T08:10:12.237Z,1008.97
2018-06-05T08:11:12.237Z,1009.00
2018-06-05T08:12:12.237Z,1008.98
2018-06-05T08:13:12.240Z,1008.99
2018-06-05T08:14:12.243Z,1008.97
2018-06-05T08:15:12.244Z,1009.01
2018-06-05T08:16:12.253Z,1009.00
2018-06-05T08:17:12.247Z,1009.00
2018-06-05T08:18:12.246Z,1008.99
2018-06-05T08:19:12.252Z,1009.00
2018-06-05T08:20:12.255Z,1009.04
2018-06-05T08:21:12.253Z,1009.00
2018-06-05T08:22:12.308Z,1009.00
2018-06-05T08:23:12.255Z,1009.00
2018-06-05T08:24:12.256Z,1009.01
2018-06-05T08:25:12.261Z,1008.99
2018-06-05T08:26:12.260Z,1009.00
2018-06-05T08:27:12.263Z,1008.99
2018-06-05T08:28:12.264Z,1009.04
2018-06-05T08:29:12.266Z,1009.01
2018-06-05T08:30:12.268Z,1009.01
2018-06-05T08:31:12.279Z,1009.02
2018-06-05T08:32:12.272Z,1009.02
2018-06-05T08:33:12.273Z,1009.05
2018-06-05T08:34:12.270Z,1009.06
2018-06-05T08:35:12.276Z,1009.07
2018-06-05T08:36:12.277Z,1009.07
2018-06-05T08:37:12.278Z,1009.07
2018-06-05T08:38:12.335Z,1009.13
2018-06-05T08:39:12.282Z,1009.09
2018-06-05T08:40:12.284Z,1009.08
2018-06-05T08:41:12.283Z,1009.10
2018-06-05T08:42:12.288Z,1009.11
2018-06-05T08:43:12.289Z,1009.13
2018-06-05T08:44:12.292Z,1009.13
2018-06-05T08:45:12.305Z,1009.11
2018-06-05T08:46:12.307Z,1009.12
2018-06-05T08:47:12.296Z,1009.13
2018-06-05T08:48:12.299Z,1009.18
2018-06-05T08:49:12.300Z,1009.16
2018-06-05T08:50:12.303Z,1009.17
2018-06-05T08:51:12.353Z,1009.19
2018-06-05T08:52:12.309Z,1009.17
2018-06-05T08:53:12.307Z,1009.16
2018-06-05T08:54:12.319Z,1009.18
2018-06-05T08:55:12.311Z,1009.23
2018-06-05T08:56:12.315Z,1009.21
2018-06-05T08:57:12.316Z,1009.21
2018-06-05T08:58:12.315Z,1009.23
2018-06-05T08:59:12.317Z,1009.20
2018-06-05T09:00:12.320Z,1009.22
2018-06-05T09:01:12.323Z,1009.21
2018-06-05T09:02:12.323Z,1009.23
2018-06-05T09:03:12.324Z,1009.27
2018-06-05T09:04:12.371Z,1009.28
2018-06-05T09:05:12.331Z,1009.27
2018-06-05T09:06:12.332Z,1009.28
2018-06-05T09:07:12.332Z,1009.30
2018-06-05T09:08:12.334Z,1009.28
2018-06-05T09:09:12.336Z,1009.26
2018-06-05T09:10:12.337Z,1009.26
2018-06-05T09:11:12.343Z,1009.27
2018-06-05T09:12:12.342Z,1009.26
2018-06-05T09:13:12.346Z,1009.27
2018-06-05T09:14:12.345Z,1009.24
2018-06-05T09:15:12.346Z,1009.26
2018-06-05T09:16:12.348Z,1009.28
2018-06-05T09:17:12.352Z,1009.34
2018-06-05T09:18:12.354Z,1009.35
2018-06-05T09:19:12.354Z,1009.36
2018-06-05T09:20:12.356Z,1009.36
2018-06-05T09:21:12.358Z,1009.38
2018-06-05T09:22:12.368Z,1009.39
2018-06-05T09:23:12.366Z,1009.36
2018-06-05T09:24:12.365Z,1009.36
2018-06-05T09:25:12.367Z,1009.40
2018-06-05T09:26:12.369Z,1009.41
2018-06-05T09:27:12.370Z,1009.39
2018-06-05T09:28:12.370Z,1009.43
2018-06-05T09:29:12.376Z,1009.40
2018-06-05T09:30:12.377Z,1009.40
2018-06-05T09:31:12.377Z,1009.46
2018-06-05T09:32:12.380Z,1009.45
2018-06-05T09:33:12.384Z,1009.47
2018-06-05T09:34:12.387Z,1009.45
2018-06-05T09:35:12.389Z,1009.43
2018-06-05T09:36:12.388Z,1009.40
2018-06-05T09:37:12.391Z,1009.42
2018-06-05T09:38:12.418Z,1009.44
2018-06-05T09:39:12.396Z,1009.51
2018-06-05T09:40:12.405Z,1009.47
2018-06-05T09:41:12.394Z,1009.50
2018-06-05T09:42:12.402Z,1009.48
2018-06-05T09:43:12.404Z,1009.52
2018-06-05T09:44:12.405Z,1009.51
2018-06-05T09:45:12.409Z,1009.48
2018-06-05T09:46:12.408Z,1009.49
2018-06-05T09:47:12.415Z,1009.49
2018-06-05T09:48:12.415Z,1009.50
2018-06-05T09:49:12.416Z,1009.50
2018-06-05T09:50:12.418Z,1009.47
2018-06-05T09:51:12.421Z,1009.48
2018-06-05T09:52:12.424Z,1009.47
2018-06-05T09:53:12.425Z,1009.48
2018-06-05T09:54:12.428Z,1009.52
2018-06-05T09:55:12.435Z,1009.53
2018-06-05T09:56:12.433Z,1009.55
2018-06-05T09:57:12.435Z,1009.52
2018-06-05T09:58:12.550Z,1009.49
2018-06-05T09:59:12.442Z,1009.52
2018-06-05T10:00:12.442Z,1009.53
2018-06-05T10:01:12.449Z,1009.56
2018-06-05T10:02:12.448Z,1009.56
2018-06-05T10:03:12.449Z,1009.58
2018-06-05T10:04:12.453Z,1009.56
2018-06-05T10:05:12.451Z,1009.57
2018-06-05T10:06:12.455Z,1009.64
2018-06-05T10:07:12.458Z,1009.67
2018-06-05T10:08:12.466Z,1009.66
2018-06-05T10:09:12.469Z,1009.68
2018-06-05T10:10:12.466Z,1009.67
2018-06-05T10:11:12.465Z,1009.72
2018-06-05T10:12:12.473Z,1009.70
2018-06-05T10:13:12.470Z,1009.72
2018-06-05T10:14:12.500Z,1009.70
2018-06-05T10:15:12.476Z,1009.67
2018-06-05T10:16:12.477Z,1009.69
2018-06-05T10:17:12.482Z,1009.68
2018-06-05T10:18:12.484Z,1009.71
2018-06-05T10:19:12.484Z,1009.71
2018-06-05T10:20:12.490Z,1009.71
2018-06-05T10:21:12.490Z,1009.71
2018-06-05T10:22:12.492Z,1009.73
2018-06-05T10:23:12.493Z,1009.73
2018-06-05T10:24:12.497Z,1009.73
2018-06-05T10:25:12.497Z,1009.72
2018-06-05T10:26:12.503Z,1009.74
2018-06-05T10:27:12.502Z,1009.73
2018-06-05T10:28:12.503Z,1009.76
2018-06-05T10:29:12.507Z,1009.74
2018-06-05T10:30:12.563Z,1009.73
2018-06-05T10:31:12.511Z,1009.72
2018-06-05T10:32:12.513Z,1009.71
2018-06-05T10:33:12.518Z,1009.70
2018-06-05T10:34:12.518Z,1009.72
2018-06-05T10:35:12.521Z,1009.71
2018-06-05T10:36:12.521Z,1009.72
2018-06-05T10:37:12.527Z,1009.68
2018-06-05T10:38:12.526Z,1009.68
2018-06-05T10:39:12.528Z,1009.66
2018-06-05T10:40:12.564Z,1009.67
2018-06-05T10:41:12.534Z,1009.67
2018-06-05T10:42:12.538Z,1009.65
2018-06-05T10:43:12.538Z,1009.67
2018-06-05T10:44:12.541Z,1009.67
2018-06-05T10:45:12.547Z,1009.67
2018-06-05T10:46:12.548Z,1009.70
2018-06-05T10:47:12.552Z,1009.71
2018-06-05T10:48:12.551Z,1009.69
2018-06-05T10:49:12.554Z,1009.66
2018-06-05T10:50:12.554Z,1009.70
2018-06-05T10:51:12.552Z,1009.66
2018-06-05T10:52:12.562Z,1009.65
2018-06-05T10:53:12.571Z,1009.68
2018-06-05T10:54:12.565Z,1009.63
2018-06-05T10:55:12.567Z,1009.66
2018-06-05T10:56:12.566Z,1009.65
2018-06-05T10:57:12.571Z,1009.65
2018-06-05T10:58:12.577Z,1009.66
2018-06-05T10:59:12.576Z,1009.69
2018-06-05T11:00:12.584Z,1009.63
2018-06-05T11:01:12.582Z,1009.66
2018-06-05T11:02:12.585Z,1009.66
2018-06-05T11:03:12.648Z,1009.66
2018-06-05T11:04:12.590Z,1009.64
2018-06-05T11:05:12.592Z,1009.66
2018-06-05T11:06:12.602Z,1009.64
2018-06-05T11:07:12.597Z,1009.63
2018-06-05T11:08:12.663Z,1009.63
2018-06-05T11:09:12.639Z,1009.68
2018-06-05T11:10:12.629Z,1009.55
2018-06-05T11:11:14.562Z,1009.60
2018-06-05T11:12:12.637Z,1009.59
2018-06-05T11:13:13.345Z,1009.60
2018-06-05T11:14:12.615Z,1009.61
2018-06-05T11:15:12.702Z,1009.63
2018-06-05T11:16:12.623Z,1009.65
2018-06-05T11:17:12.627Z,1009.63
2018-06-05T11:18:12.647Z,1009.65
2018-06-05T11:19:12.712Z,1009.70
2018-06-05T11:20:12.637Z,1009.69
2018-06-05T11:21:12.640Z,1009.68
2018-06-05T11:22:12.644Z,1009.64
2018-06-05T11:23:12.645Z,1009.68
2018-06-05T11:24:12.648Z,1009.67
2018-06-05T11:25:12.698Z,1009.66
2018-06-05T11:26:12.679Z,1009.64
2018-06-05T11:27:12.658Z,1009.63
2018-06-05T11:28:12.666Z,1009.59
2018-06-05T11:29:12.667Z,1009.63
2018-06-05T11:30:12.677Z,1009.62
2018-06-05T11:31:12.706Z,1009.63
2018-06-05T11:32:12.679Z,1009.63
2018-06-05T11:33:12.728Z,1009.61
2018-06-05T11:34:12.686Z,1009.63
2018-06-05T11:35:12.688Z,1009.61
2018-06-05T11:36:12.691Z,1009.58
2018-06-05T11:37:12.697Z,1009.60
2018-06-05T11:38:12.737Z,1009.56
2018-06-05T11:39:12.701Z,1009.58
2018-06-05T11:40:12.707Z,1009.56
2018-06-05T11:41:12.713Z,1009.56
2018-06-05T11:42:12.728Z,1009.58
2018-06-05T11:43:12.726Z,1009.55
2018-06-05T11:44:12.726Z,1009.53
2018-06-05T11:45:12.732Z,1009.54
2018-06-05T11:46:12.731Z,1009.54
2018-06-05T11:47:12.734Z,1009.52
2018-06-05T11:48:12.868Z,1009.52
2018-06-05T11:49:12.741Z,1009.51
2018-06-05T11:50:12.746Z,1009.52
2018-06-05T11:51:12.790Z,1009.51
2018-06-05T11:52:12.753Z,1009.50
2018-06-05T11:53:12.757Z,1009.50
2018-06-05T11:54:12.788Z,1009.53
2018-06-05T11:55:12.766Z,1009.53
2018-06-05T11:56:12.767Z,1009.54
2018-06-05T11:57:12.773Z,1009.52
2018-06-05T11:58:12.770Z,1009.52
2018-06-05T11:59:12.775Z,1009.55
2018-06-05T12:00:12.780Z,1009.53
2018-06-05T12:01:12.784Z,1009.50
2018-06-05T12:02:12.792Z,1009.48
2018-06-05T12:03:12.793Z,1009.45
2018-06-05T12:04:12.797Z,1009.44
2018-06-05T12:05:12.802Z,1009.42